Time;durP1;ratioP1;P1;durP2;ratioP2;P2;SDS_P1;SDS_P2;PMS_P1;PMS_P2;Temp;Humidity;BMP_temperature;BMP_pressure;BME280_temperature;BME280_humidity;BME280_pressure;Samples;Min_cycle;Max_cycle;Signal;HPM_P1;HPM_P2
2021/06/28 00:02:04;;;;;;;15.37;13.80;;;18.10;99.90;;;;;;4378188;32;20160;-63
2021/06/28 00:04:31;;;;;;;16.33;14.53;;;18.20;99.90;;;;;;4377197;32;20160;-62
2021/06/28 00:06:58;;;;;;;17.70;15.80;;;18.20;99.90;;;;;;4387811;32;20172;-63
2021/06/28 00:09:26;;;;;;;17.50;15.37;;;18.30;99.90;;;;;;4379047;32;20613;-64
2021/06/28 00:11:55;;;;;;;17.10;15.30;;;18.30;99.90;;;;;;4387507;32;20156;-64
2021/06/28 00:14:22;;;;;;;19.23;15.57;;;18.30;99.90;;;;;;4384668;32;20172;-64
2021/06/28 00:16:49;;;;;;;16.63;14.77;;;18.30;99.90;;;;;;4382258;32;20512;-63
2021/06/28 00:19:16;;;;;;;19.10;15.80;;;18.30;99.90;;;;;;4386892;32;20211;-65
2021/06/28 00:21:42;;;;;;;19.87;16.50;;;18.30;99.90;;;;;;4383528;32;20171;-63
2021/06/28 00:24:09;;;;;;;16.77;14.70;;;18.30;99.90;;;;;;4378632;32;20194;-65
2021/06/28 00:26:38;;;;;;;19.93;15.40;;;18.30;99.90;;;;;;4379256;32;20216;-63
2021/06/28 00:29:05;;;;;;;18.37;16.47;;;18.20;99.90;;;;;;4384392;32;20469;-63
2021/06/28 00:31:32;;;;;;;19.77;16.13;;;18.20;99.90;;;;;;4378630;32;20164;-63
2021/06/28 00:34:00;;;;;;;17.63;15.70;;;18.20;99.90;;;;;;4389742;32;20251;-64
2021/06/28 00:36:27;;;;;;;19.50;15.73;;;18.20;99.90;;;;;;4384398;32;20576;-63
2021/06/28 00:38:54;;;;;;;18.57;14.23;;;18.20;99.90;;;;;;4381255;32;20496;-62
2021/06/28 00:41:21;;;;;;;18.47;15.13;;;18.20;99.90;;;;;;4387490;32;20178;-62
2021/06/28 00:43:50;;;;;;;20.13;16.03;;;18.30;99.90;;;;;;4381432;32;20207;-63
2021/06/28 00:46:17;;;;;;;20.20;15.70;;;18.30;99.90;;;;;;4375128;32;20247;-63
2021/06/28 00:48:44;;;;;;;17.27;14.53;;;18.30;99.90;;;;;;4385002;32;20248;-63
2021/06/28 00:51:11;;;;;;;18.10;14.90;;;18.30;99.90;;;;;;4375798;32;20233;-62
2021/06/28 00:53:38;;;;;;;20.77;15.23;;;18.20;99.90;;;;;;4380218;32;20175;-63
2021/06/28 00:56:12;;;;;;;17.30;14.10;;;18.20;99.90;;;;;;4377598;32;20236;-63
2021/06/28 00:58:58;;;;;;;17.97;15.97;;;18.20;99.90;;;;;;4370481;32;20206;-64
2021/06/28 01:01:29;;;;;;;21.53;17.43;;;18.20;99.90;;;;;;4372898;32;20183;-62
2021/06/28 01:03:58;;;;;;;21.67;16.33;;;18.20;99.90;;;;;;4383442;32;20588;-62
2021/06/28 01:06:28;;;;;;;20.60;17.20;;;18.10;99.90;;;;;;4386789;32;20149;-62
2021/06/28 01:08:55;;;;;;;19.20;15.90;;;18.10;99.90;;;;;;4375989;32;20172;-63
2021/06/28 01:11:21;;;;;;;16.87;15.07;;;18.20;99.90;;;;;;4377006;32;20156;-64
2021/06/28 01:13:49;;;;;;;17.83;14.90;;;18.20;99.90;;;;;;4388418;32;21443;-64
2021/06/28 01:16:21;;;;;;;16.80;14.80;;;18.30;99.90;;;;;;4385499;32;20160;-63
2021/06/28 01:18:50;;;;;;;16.57;13.90;;;18.20;99.90;;;;;;4370008;32;20180;-65
2021/06/28 01:21:18;;;;;;;17.43;14.60;;;18.20;99.90;;;;;;4375754;32;20172;-63
2021/06/28 01:23:47;;;;;;;21.83;15.27;;;18.20;99.90;;;;;;4375896;32;20183;-63
2021/06/28 01:26:14;;;;;;;16.97;15.17;;;18.10;99.90;;;;;;4375486;32;20183;-62
2021/06/28 01:28:42;;;;;;;16.77;14.83;;;18.10;99.90;;;;;;4377446;32;20160;-63
2021/06/28 01:31:11;;;;;;;15.90;14.20;;;18.10;99.90;;;;;;4379662;32;20186;-62
2021/06/28 01:33:38;;;;;;;16.43;14.27;;;18.00;99.90;;;;;;4390145;32;20484;-62
2021/06/28 01:36:06;;;;;;;17.47;14.57;;;17.90;99.90;;;;;;4385756;32;20171;-63
2021/06/28 01:38:33;;;;;;;19.03;14.97;;;17.80;99.90;;;;;;4386405;32;20204;-64
2021/06/28 01:41:01;;;;;;;18.37;14.60;;;17.80;99.90;;;;;;4384888;32;20195;-63
2021/06/28 01:43:30;;;;;;;17.60;14.80;;;17.70;99.90;;;;;;4376050;32;20156;-64
2021/06/28 01:45:57;;;;;;;17.73;15.83;;;17.70;99.90;;;;;;4377471;32;20220;-63
2021/06/28 01:48:24;;;;;;;17.20;14.53;;;17.70;99.90;;;;;;4375654;32;20169;-62
2021/06/28 01:50:52;;;;;;;18.10;15.97;;;17.70;99.90;;;;;;4376055;32;20531;-63
2021/06/28 01:53:19;;;;;;;19.47;17.27;;;17.70;99.90;;;;;;4374833;32;20175;-63
2021/06/28 01:55:46;;;;;;;18.97;15.57;;;17.70;99.90;;;;;;4388420;32;20210;-63
2021/06/28 01:58:17;;;;;;;21.70;16.70;;;17.70;99.90;;;;;;4380171;32;20157;-63
2021/06/28 02:00:46;;;;;;;17.27;15.00;;;17.70;99.90;;;;;;4381766;32;20200;-62
2021/06/28 02:03:18;;;;;;;22.60;16.57;;;17.70;99.90;;;;;;4380496;32;20155;-63
2021/06/28 02:05:47;;;;;;;18.50;16.27;;;17.60;99.90;;;;;;4383567;32;20199;-62
2021/06/28 02:08:15;;;;;;;20.37;17.43;;;17.60;99.90;;;;;;4388785;32;20180;-63
2021/06/28 02:10:46;;;;;;;19.17;17.20;;;17.60;99.90;;;;;;4385165;32;20212;-61
2021/06/28 02:13:15;;;;;;;18.67;16.67;;;17.60;99.90;;;;;;4375963;32;20525;-61
2021/06/28 02:15:41;;;;;;;19.50;17.47;;;17.60;99.90;;;;;;4382048;32;20152;-61
2021/06/28 02:18:08;;;;;;;17.63;15.73;;;17.60;99.90;;;;;;4379095;32;20217;-62
2021/06/28 02:20:35;;;;;;;18.23;16.33;;;17.60;99.90;;;;;;4385997;32;20163;-63
2021/06/28 02:23:15;;;;;;;18.40;16.50;;;17.60;99.90;;;;;;4390206;32;20179;-60
2021/06/28 02:25:42;;;;;;;17.87;15.97;;;17.60;99.90;;;;;;4384661;32;20207;-62
2021/06/28 02:28:09;;;;;;;18.73;15.67;;;17.50;99.90;;;;;;4375032;32;20145;-61
2021/06/28 02:30:37;;;;;;;17.13;15.40;;;17.50;99.90;;;;;;4376122;32;20164;-60
2021/06/28 02:33:04;;;;;;;18.07;16.17;;;17.50;99.90;;;;;;4385498;32;20175;-62
2021/06/28 02:35:31;;;;;;;18.00;15.97;;;17.50;99.90;;;;;;4285171;32;2977770;-62
2021/06/28 02:37:58;;;;;;;19.13;16.47;;;17.50;99.90;;;;;;4389544;32;20182;-61
2021/06/28 02:40:25;;;;;;;19.17;16.70;;;17.40;99.90;;;;;;4379975;32;20178;-62
2021/06/28 02:42:54;;;;;;;19.37;17.10;;;17.40;99.90;;;;;;4379243;32;20616;-63
2021/06/28 02:45:22;;;;;;;17.70;15.20;;;17.40;99.90;;;;;;4378164;32;20168;-63
2021/06/28 02:47:50;;;;;;;17.90;16.00;;;17.40;99.90;;;;;;4378173;32;20228;-63
2021/06/28 02:50:17;;;;;;;18.70;15.93;;;17.40;99.90;;;;;;4381954;32;20172;-63
2021/06/28 02:52:44;;;;;;;17.87;16.03;;;17.30;99.90;;;;;;4385369;32;20168;-62
2021/06/28 02:55:12;;;;;;;18.87;16.90;;;17.30;99.90;;;;;;4390232;32;20175;-62
2021/06/28 02:57:40;;;;;;;18.47;16.47;;;17.30;99.90;;;;;;4386455;32;20195;-63
2021/06/28 03:00:10;;;;;;;21.63;17.70;;;17.20;99.90;;;;;;4379875;32;20211;-63
2021/06/28 03:02:37;;;;;;;20.70;18.50;;;17.20;99.90;;;;;;4377215;32;20179;-61
2021/06/28 03:05:06;;;;;;;20.03;17.93;;;17.20;99.90;;;;;;4388529;32;20247;-62
2021/06/28 03:07:33;;;;;;;18.83;16.83;;;17.20;99.90;;;;;;4385630;32;20576;-63
2021/06/28 03:10:00;;;;;;;20.03;17.90;;;17.20;99.90;;;;;;4383452;32;20155;-62
2021/06/28 03:12:26;;;;;;;18.77;16.73;;;17.20;99.90;;;;;;4384357;32;20179;-62
2021/06/28 03:14:53;;;;;;;19.60;17.00;;;17.20;99.90;;;;;;4387567;32;20184;-63
2021/06/28 03:17:21;;;;;;;19.00;16.87;;;17.20;99.90;;;;;;4380468;32;20206;-61
2021/06/28 03:19:48;;;;;;;21.73;19.47;;;17.20;99.90;;;;;;4380297;32;20164;-62
2021/06/28 03:22:17;;;;;;;21.43;17.47;;;17.20;99.90;;;;;;4384833;32;20183;-62
2021/06/28 03:24:44;;;;;;;22.93;19.13;;;17.20;99.90;;;;;;4384225;32;20198;-60
2021/06/28 03:27:11;;;;;;;22.17;19.33;;;17.20;99.90;;;;;;4383004;32;20196;-60
2021/06/28 03:29:38;;;;;;;23.07;19.07;;;17.20;99.90;;;;;;4387575;32;20187;-62
2021/06/28 03:32:05;;;;;;;22.47;19.20;;;17.10;99.90;;;;;;4378317;32;20584;-61
2021/06/28 03:34:32;;;;;;;23.67;19.73;;;17.20;99.90;;;;;;4380975;32;20610;-63
2021/06/28 03:36:58;;;;;;;21.67;18.80;;;17.10;99.90;;;;;;4377386;32;20198;-63
2021/06/28 03:39:27;;;;;;;23.87;19.30;;;17.20;99.90;;;;;;4377403;32;20670;-62
2021/06/28 03:41:53;;;;;;;22.70;20.17;;;17.20;99.90;;;;;;4379899;32;20187;-63
2021/06/28 03:44:40;;;;;;;26.60;21.50;;;17.20;99.90;;;;;;4389228;32;20674;-61
2021/06/28 03:47:07;;;;;;;23.57;19.93;;;17.10;99.90;;;;;;4376869;32;20217;-64
2021/06/28 03:49:34;;;;;;;21.10;19.00;;;17.10;99.90;;;;;;4382234;32;20155;-62
2021/06/28 03:52:01;;;;;;;24.60;21.20;;;17.10;99.90;;;;;;4381402;32;20234;-62
2021/06/28 03:54:32;;;;;;;23.20;19.40;;;17.10;99.90;;;;;;4391957;32;20156;-61
2021/06/28 03:56:59;;;;;;;23.03;20.57;;;17.20;99.90;;;;;;4389092;32;20163;-63
2021/06/28 03:59:26;;;;;;;25.80;20.30;;;17.20;99.90;;;;;;4381375;32;20198;-62
2021/06/28 04:01:55;;;;;;;27.60;23.67;;;17.10;99.90;;;;;;4378051;32;20160;-61
2021/06/28 04:04:22;;;;;;;22.63;19.67;;;17.10;99.90;;;;;;4381333;32;20169;-62
2021/06/28 04:06:49;;;;;;;24.10;20.57;;;17.10;99.90;;;;;;4380748;32;20156;-61
2021/06/28 04:09:16;;;;;;;22.97;20.50;;;17.10;99.90;;;;;;4377889;32;20450;-62
2021/06/28 04:11:46;;;;;;;25.50;20.03;;;17.10;99.90;;;;;;4391374;32;20164;-61
2021/06/28 04:14:13;;;;;;;24.30;21.23;;;17.10;99.90;;;;;;4387798;32;20530;-61
2021/06/28 04:16:40;;;;;;;27.63;22.17;;;17.10;99.90;;;;;;4385355;32;20164;-61
2021/06/28 04:19:07;;;;;;;25.93;21.40;;;17.10;99.90;;;;;;4378032;32;20194;-63
2021/06/28 04:21:35;;;;;;;23.83;21.27;;;17.20;99.90;;;;;;4383277;32;20618;-63
2021/06/28 04:24:04;;;;;;;23.80;20.60;;;17.20;99.90;;;;;;4387964;32;20160;-62
2021/06/28 04:26:31;;;;;;;25.13;22.10;;;17.10;99.90;;;;;;4376187;32;20149;-62
2021/06/28 04:29:00;;;;;;;35.77;28.83;;;17.20;99.90;;;;;;4381026;32;20491;-62
2021/06/28 04:31:28;;;;;;;27.00;23.43;;;17.20;99.90;;;;;;4376757;32;20254;-62
2021/06/28 04:33:55;;;;;;;26.17;21.83;;;17.20;99.90;;;;;;4376871;32;20172;-61
2021/06/28 04:36:22;;;;;;;32.70;27.73;;;17.20;99.90;;;;;;4387989;32;20184;-64
2021/06/28 04:38:48;;;;;;;29.03;24.37;;;17.30;99.90;;;;;;4377750;32;20179;-61
2021/06/28 04:41:15;;;;;;;29.20;24.27;;;17.30;99.90;;;;;;4380339;32;20180;-62
2021/06/28 04:43:42;;;;;;;28.00;24.97;;;17.40;99.90;;;;;;4383802;32;20505;-61
2021/06/28 04:46:11;;;;;;;27.90;24.87;;;17.60;99.90;;;;;;4385589;32;20172;-62
2021/06/28 04:48:38;;;;;;;31.30;25.67;;;17.70;99.90;;;;;;4384354;32;20155;-61
2021/06/28 04:51:05;;;;;;;28.93;25.80;;;17.70;99.90;;;;;;4380119;32;20576;-61
2021/06/28 04:53:32;;;;;;;29.40;22.00;;;17.70;99.90;;;;;;4381708;32;20212;-63
2021/06/28 04:56:04;;;;;;;28.70;25.27;;;17.80;99.90;;;;;;4379855;32;20164;-61
2021/06/28 04:58:31;;;;;;;27.07;23.90;;;17.90;99.90;;;;;;4375235;32;20169;-62
2021/06/28 05:00:58;;;;;;;31.00;24.90;;;18.00;99.90;;;;;;4385633;32;20603;-62
2021/06/28 05:03:26;;;;;;;27.17;23.73;;;18.00;99.90;;;;;;4386647;32;20212;-64
2021/06/28 05:05:53;;;;;;;27.63;23.53;;;18.00;99.90;;;;;;4375205;32;20220;-64
2021/06/28 05:08:20;;;;;;;27.47;24.17;;;18.10;99.90;;;;;;4376101;32;20155;-61
2021/06/28 05:10:46;;;;;;;31.30;27.23;;;18.10;99.90;;;;;;4383431;32;20161;-60
2021/06/28 05:13:15;;;;;;;30.73;24.47;;;18.20;99.90;;;;;;4377779;32;20186;-62
2021/06/28 05:15:42;;;;;;;27.83;23.97;;;18.30;99.90;;;;;;4379502;32;20247;-61
2021/06/28 05:18:09;;;;;;;29.27;25.73;;;18.40;99.90;;;;;;4379374;32;20175;-62
2021/06/28 05:20:38;;;;;;;27.23;24.27;;;18.50;99.90;;;;;;4376363;32;20160;-60
2021/06/28 05:23:04;;;;;;;29.80;26.00;;;18.50;99.90;;;;;;4378802;32;20612;-61
2021/06/28 05:25:31;;;;;;;27.33;24.43;;;18.60;99.90;;;;;;4388455;32;20226;-61
2021/06/28 05:27:59;;;;;;;31.50;26.90;;;18.60;99.90;;;;;;4380418;32;20207;-62
2021/06/28 05:30:28;;;;;;;25.57;22.77;;;18.80;99.90;;;;;;4379140;32;20233;-60
2021/06/28 05:32:55;;;;;;;26.07;23.37;;;19.00;99.90;;;;;;4381314;32;20160;-62
2021/06/28 05:35:22;;;;;;;28.37;25.37;;;19.10;99.90;;;;;;4379971;32;20199;-61
2021/06/28 05:37:50;;;;;;;25.93;23.13;;;19.20;99.90;;;;;;4378549;32;20195;-61
2021/06/28 05:40:17;;;;;;;28.63;25.70;;;19.40;99.90;;;;;;4379660;32;20172;-63
2021/06/28 05:42:47;;;;;;;29.23;24.87;;;19.40;99.90;;;;;;4379416;32;20186;-61
2021/06/28 05:45:14;;;;;;;24.67;22.10;;;19.50;99.90;;;;;;4379879;32;20192;-61
2021/06/28 05:47:50;;;;;;;22.07;19.77;;;20.00;99.90;;;;;;4379978;32;20159;-62
2021/06/28 05:50:18;;;;;;;20.17;18.07;;;21.20;99.90;;;;;;4378153;32;20168;-64
2021/06/28 05:52:45;;;;;;;19.03;16.80;;;22.70;99.90;;;;;;4380606;32;20210;-65
2021/06/28 05:55:14;;;;;;;18.47;16.67;;;22.80;99.90;;;;;;4381702;32;20212;-62
2021/06/28 05:57:43;;;;;;;20.87;18.73;;;22.20;99.90;;;;;;4376883;32;20224;-62
2021/06/28 06:00:13;;;;;;;19.67;17.67;;;21.70;99.90;;;;;;4378818;32;20164;-62
2021/06/28 06:02:40;;;;;;;20.77;17.53;;;21.10;99.90;;;;;;4375961;32;20491;-64
2021/06/28 06:05:09;;;;;;;19.80;17.70;;;20.80;99.90;;;;;;4376086;32;20232;-63
2021/06/28 06:07:40;;;;;;;19.73;17.83;;;20.60;99.90;;;;;;4380741;32;20156;-65
2021/06/28 06:10:09;;;;;;;23.30;19.87;;;20.40;99.90;;;;;;4380026;32;20223;-62
2021/06/28 06:12:38;;;;;;;22.33;19.47;;;20.30;99.90;;;;;;4382640;32;20215;-64
2021/06/28 06:15:06;;;;;;;22.53;20.13;;;20.20;99.90;;;;;;4381116;32;20546;-63
2021/06/28 06:17:36;;;;;;;22.40;20.10;;;20.20;99.90;;;;;;4380122;32;20242;-63
2021/06/28 06:20:05;;;;;;;21.97;19.23;;;20.20;99.90;;;;;;4381815;32;20165;-62
2021/06/28 06:22:32;;;;;;;25.20;21.17;;;20.20;99.90;;;;;;4378852;32;20702;-64
2021/06/28 06:24:59;;;;;;;23.67;21.20;;;20.20;99.90;;;;;;4380356;32;20210;-61
2021/06/28 06:27:27;;;;;;;23.60;20.13;;;20.20;99.90;;;;;;4381458;32;20223;-62
2021/06/28 06:29:57;;;;;;;22.03;19.43;;;20.10;99.90;;;;;;4378364;32;20254;-62
2021/06/28 06:32:24;;;;;;;23.83;20.27;;;20.10;99.90;;;;;;4383414;32;20631;-64
2021/06/28 06:34:51;;;;;;;24.53;21.93;;;20.20;99.90;;;;;;4384070;32;20187;-62
2021/06/28 06:37:18;;;;;;;21.20;19.00;;;20.30;99.90;;;;;;4382236;32;20535;-62
2021/06/28 06:39:45;;;;;;;22.00;19.70;;;20.40;99.90;;;;;;4378552;32;20264;-61
2021/06/28 06:42:12;;;;;;;22.50;20.10;;;20.40;99.90;;;;;;4379782;32;20160;-61
2021/06/28 06:44:40;;;;;;;23.03;20.50;;;20.50;99.90;;;;;;4377147;32;20211;-63
2021/06/28 06:47:08;;;;;;;21.47;19.20;;;20.70;99.90;;;;;;4381548;32;20186;-63
2021/06/28 06:49:35;;;;;;;21.87;19.77;;;20.80;99.90;;;;;;4380240;32;20182;-61
2021/06/28 06:52:05;;;;;;;22.60;20.30;;;21.00;99.90;;;;;;4379511;32;20165;-62
2021/06/28 06:54:32;;;;;;;21.67;19.37;;;21.10;99.90;;;;;;4383435;32;20188;-62
2021/06/28 06:56:59;;;;;;;21.57;18.97;;;21.40;99.90;;;;;;4383523;32;20512;-61
2021/06/28 06:59:30;;;;;;;23.63;19.07;;;21.70;99.90;;;;;;4377944;32;20171;-64
2021/06/28 07:01:57;;;;;;;22.40;19.83;;;21.90;99.90;;;;;;4382261;32;20153;-60
2021/06/28 07:04:25;;;;;;;23.07;19.53;;;22.00;99.90;;;;;;4382619;32;20179;-63
2021/06/28 07:06:52;;;;;;;21.13;18.67;;;22.20;99.90;;;;;;4385732;32;20176;-62
2021/06/28 07:09:19;;;;;;;20.57;18.30;;;22.40;99.90;;;;;;4383875;32;20601;-61
2021/06/28 07:11:46;;;;;;;20.60;18.23;;;22.50;99.90;;;;;;4377210;32;20153;-62
2021/06/28 07:14:13;;;;;;;20.37;18.27;;;22.50;99.90;;;;;;4379238;32;20192;-63
2021/06/28 07:16:40;;;;;;;19.43;17.53;;;22.30;99.90;;;;;;4385691;32;20593;-62
2021/06/28 07:19:07;;;;;;;22.60;18.53;;;22.30;99.90;;;;;;4389690;32;20542;-61
2021/06/28 07:21:36;;;;;;;21.30;19.00;;;22.30;99.90;;;;;;4380500;32;20501;-62
2021/06/28 07:24:05;;;;;;;19.20;17.23;;;22.40;99.90;;;;;;4386211;32;20206;-62
2021/06/28 07:26:35;;;;;;;20.83;17.90;;;22.40;99.90;;;;;;4387156;32;20225;-62
2021/06/28 07:29:03;;;;;;;20.63;17.80;;;22.50;99.90;;;;;;4377457;32;20208;-61
2021/06/28 07:31:30;;;;;;;21.53;19.33;;;22.60;99.90;;;;;;4389588;32;20296;-61
2021/06/28 07:33:57;;;;;;;20.47;18.27;;;22.80;99.90;;;;;;4387580;32;20173;-63
2021/06/28 07:36:24;;;;;;;18.87;16.87;;;23.10;99.90;;;;;;4391582;32;20152;-62
2021/06/28 07:38:52;;;;;;;21.83;19.37;;;23.40;99.90;;;;;;4386806;32;20208;-63
2021/06/28 07:41:19;;;;;;;18.83;16.90;;;23.60;99.90;;;;;;4384933;32;20174;-61
2021/06/28 07:43:49;;;;;;;18.50;16.60;;;24.00;99.90;;;;;;4379319;32;20152;-62
2021/06/28 07:46:15;;;;;;;19.95;17.90;;;24.40;99.90;;;;;;4379204;32;20487;-62
2021/06/28 07:48:42;;;;;;;19.67;17.67;;;24.80;99.90;;;;;;4378515;32;20157;-61
2021/06/28 07:51:09;;;;;;;21.17;17.85;;;24.90;99.90;;;;;;4382203;32;20175;-62
2021/06/28 07:53:39;;;;;;;19.15;15.60;;;25.40;99.90;;;;;;4381921;32;20228;-62
2021/06/28 07:56:18;;;;;;;18.70;16.70;;;26.50;99.90;;;;;;4379105;32;20171;-62
2021/06/28 07:58:49;;;;;;;18.42;16.42;;;27.80;99.90;;;;;;4376237;32;20179;-63
2021/06/28 08:01:17;;;;;;;17.48;15.68;;;30.60;99.90;;;;;;4379583;32;20156;-62
2021/06/28 08:03:47;;;;;;;17.30;15.57;;;30.60;99.90;;;;;;4382824;32;20152;-61
2021/06/28 08:06:15;;;;;;;15.93;14.32;;;30.20;99.90;;;;;;4372162;32;20682;-61
2021/06/28 08:08:46;;;;;;;14.55;13.10;;;32.90;98.10;;;;;;4374632;32;20670;-61
2021/06/28 08:11:29;;;;;;;13.93;12.00;;;38.40;91.60;;;;;;4375349;32;20235;-62
2021/06/28 08:14:01;;;;;;;12.55;11.35;;;43.40;68.70;;;;;;4377158;32;20591;-61
2021/06/28 08:16:28;;;;;;;9.98;9.00;;;46.70;58.20;;;;;;4379414;32;20507;-60
2021/06/28 08:18:54;;;;;;;14.15;12.85;;;46.30;50.80;;;;;;4388152;32;20183;-62
2021/06/28 08:21:22;;;;;;;12.20;10.98;;;42.60;53.10;;;;;;4377015;32;20596;-61
2021/06/28 08:23:49;;;;;;;10.60;9.60;;;40.90;55.70;;;;;;4373303;32;20453;-62
2021/06/28 08:26:16;;;;;;;10.98;9.98;;;42.40;59.40;;;;;;4390739;32;20453;-62
2021/06/28 08:28:45;;;;;;;12.55;11.35;;;46.20;53.10;;;;;;4378490;32;20179;-62
2021/06/28 08:31:13;;;;;;;12.82;11.70;;;49.60;48.00;;;;;;4381228;32;20624;-61
2021/06/28 08:33:40;;;;;;;12.02;10.88;;;51.30;43.50;;;;;;4385713;32;20191;-61
2021/06/28 08:36:08;;;;;;;10.73;9.63;;;52.30;42.10;;;;;;4387700;32;20226;-63
2021/06/28 08:38:35;;;;;;;10.60;9.70;;;54.00;39.50;;;;;;4378812;32;20175;-62
2021/06/28 08:41:02;;;;;;;11.52;10.57;;;53.00;38.30;;;;;;4375890;32;20174;-62
2021/06/28 08:43:29;;;;;;;10.05;9.10;;;52.70;39.40;;;;;;4378985;32;20226;-62
2021/06/28 08:45:56;;;;;;;9.25;8.35;;;52.60;38.50;;;;;;4378080;32;20159;-61
2021/06/28 08:48:24;;;;;;;10.38;9.57;;;52.40;38.20;;;;;;4383793;32;20199;-63
2021/06/28 08:50:54;;;;;;;11.45;10.30;;;51.20;38.70;;;;;;4385136;32;20156;-61
2021/06/28 08:53:22;;;;;;;11.68;10.70;;;49.00;39.20;;;;;;4389088;32;20194;-62
2021/06/28 08:55:51;;;;;;;11.48;10.48;;;46.60;41.50;;;;;;4390741;32;20175;-62
2021/06/28 08:58:19;;;;;;;11.63;10.73;;;44.90;42.10;;;;;;4381060;32;20522;-62
2021/06/28 09:00:47;;;;;;;13.85;12.45;;;42.80;44.30;;;;;;4388810;32;20190;-62
2021/06/28 09:03:15;;;;;;;12.85;11.82;;;40.30;45.30;;;;;;4385801;32;20164;-62
2021/06/28 09:05:59;;;;;;;14.35;13.02;;;38.90;48.60;;;;;;4382329;32;20179;-63
2021/06/28 09:08:25;;;;;;;12.82;11.60;;;38.60;49.50;;;;;;4377909;32;20576;-62
2021/06/28 09:10:55;;;;;;;12.15;10.93;;;39.80;47.90;;;;;;4382780;32;20313;-62
2021/06/28 09:13:36;;;;;;;16.87;15.27;;;40.10;47.40;;;;;;4386495;32;20208;-63
2021/06/28 09:16:16;;;;;;;11.68;10.48;;;39.40;46.40;;;;;;4375349;32;20545;-62
2021/06/28 09:18:56;;;;;;;11.35;10.45;;;39.00;48.90;;;;;;4382955;32;20191;-62
2021/06/28 09:21:32;;;;;;;13.77;12.37;;;37.50;51.10;;;;;;4387551;32;20317;-64
2021/06/28 09:24:01;;;;;;;11.90;10.88;;;36.30;53.90;;;;;;4381837;32;20160;-64
2021/06/28 09:26:33;;;;;;;13.32;11.90;;;35.40;54.90;;;;;;4376349;32;20691;-64
2021/06/28 09:29:01;;;;;;;12.75;11.45;;;35.00;56.00;;;;;;4378674;32;20626;-62
2021/06/28 09:31:34;;;;;;;12.82;11.52;;;37.50;55.50;;;;;;4375339;32;20216;-64
2021/06/28 09:34:05;;;;;;;10.80;9.48;;;42.90;48.80;;;;;;4378310;32;20164;-62
2021/06/28 09:36:47;;;;;;;10.25;9.35;;;47.10;44.00;;;;;;4375631;32;20219;-63
2021/06/28 09:39:40;;;;;;;8.43;7.70;;;50.40;40.70;;;;;;4387826;32;20148;-64
2021/06/28 09:42:14;;;;;;;11.63;10.63;;;50.50;38.60;;;;;;4377030;32;20187;-63
2021/06/28 09:44:50;;;;;;;10.95;10.05;;;47.50;40.00;;;;;;4380608;32;20641;-63
2021/06/28 09:47:19;;;;;;;9.73;8.93;;;46.00;41.10;;;;;;4379984;32;20222;-62
2021/06/28 09:50:00;;;;;;;12.00;10.77;;;43.10;42.90;;;;;;4382459;32;20171;-63
2021/06/28 09:52:33;;;;;;;9.45;8.65;;;39.40;45.80;;;;;;4378228;32;20580;-62
2021/06/28 09:55:15;;;;;;;10.48;9.48;;;36.70;51.10;;;;;;4382712;32;20156;-64
2021/06/28 09:58:08;;;;;;;10.60;9.68;;;35.00;54.90;;;;;;4381562;32;20621;-63
2021/06/28 10:00:36;;;;;;;9.25;8.45;;;34.10;57.90;;;;;;4380200;32;20152;-63
2021/06/28 10:03:06;;;;;;;9.45;8.60;;;33.60;58.30;;;;;;4382121;32;20515;-63
2021/06/28 10:05:41;;;;;;;8.55;7.82;;;32.80;59.70;;;;;;4380260;32;20210;-63
2021/06/28 10:08:16;;;;;;;8.98;8.18;;;31.80;59.60;;;;;;4380855;32;20160;-62
2021/06/28 10:10:43;;;;;;;9.05;8.25;;;30.80;66.30;;;;;;4380331;32;20156;-61
2021/06/28 10:13:14;;;;;;;8.65;7.95;;;30.00;72.30;;;;;;4382401;32;20279;-62
2021/06/28 10:15:43;;;;;;;9.98;9.07;;;29.20;80.00;;;;;;4380866;32;20581;-62
2021/06/28 10:18:14;;;;;;;9.38;8.43;;;28.50;83.20;;;;;;4379355;32;20163;-61
2021/06/28 10:20:43;;;;;;;11.38;10.30;;;28.00;92.00;;;;;;4380158;32;20164;-59
2021/06/28 10:23:10;;;;;;;10.75;9.65;;;27.70;94.30;;;;;;4383386;32;20577;-59
2021/06/28 10:25:39;;;;;;;9.63;8.73;;;27.40;97.60;;;;;;4372009;32;20212;-61
2021/06/28 10:28:06;;;;;;;11.93;10.77;;;27.20;99.00;;;;;;4373917;32;20183;-60
2021/06/28 10:30:34;;;;;;;11.93;10.73;;;26.90;99.30;;;;;;4382090;32;20208;-59
2021/06/28 10:33:04;;;;;;;11.35;10.35;;;26.60;99.90;;;;;;4384804;32;20534;-62
2021/06/28 10:35:35;;;;;;;14.60;13.13;;;26.40;99.90;;;;;;4376669;32;20230;-62
2021/06/28 10:38:06;;;;;;;12.95;11.35;;;26.30;99.90;;;;;;4379639;32;20480;-62
2021/06/28 10:43:37;;;;;;;12.27;11.18;;;25.90;99.90;;;;;;4375630;32;20556;-63
2021/06/28 10:46:06;;;;;;;11.75;10.65;;;25.80;99.90;;;;;;4377514;32;20224;-61
2021/06/28 10:48:49;;;;;;;13.25;11.95;;;25.60;99.90;;;;;;4380396;32;20160;-61
2021/06/28 10:51:21;;;;;;;12.07;10.98;;;25.60;99.90;;;;;;4385240;32;20217;-61
2021/06/28 10:54:14;;;;;;;12.77;11.55;;;25.40;99.90;;;;;;4373546;32;20156;-63
2021/06/28 10:56:55;;;;;;;15.20;12.73;;;25.40;99.90;;;;;;4384647;32;20636;-61
2021/06/28 10:59:31;;;;;;;11.98;10.82;;;25.40;99.90;;;;;;4392385;32;20155;-61
2021/06/28 11:02:03;;;;;;;12.77;11.30;;;25.40;99.90;;;;;;4382998;32;20152;-60
2021/06/28 11:04:32;;;;;;;14.07;12.10;;;25.40;99.90;;;;;;4392513;32;20183;-61
2021/06/28 11:07:13;;;;;;;13.88;12.52;;;25.30;99.90;;;;;;4380210;32;20164;-61
2021/06/28 11:09:46;;;;;;;13.65;12.30;;;25.20;99.90;;;;;;4387487;32;20140;-62
2021/06/28 11:12:38;;;;;;;12.90;11.70;;;25.10;99.90;;;;;;4383033;32;20196;-60
2021/06/28 11:15:25;;;;;;;13.43;12.05;;;25.20;99.90;;;;;;4338881;33;20154;-62
2021/06/28 11:17:53;;;;;;;14.25;12.75;;;25.20;99.90;;;;;;4334514;33;20196;-61
2021/06/28 11:20:32;;;;;;;12.37;11.27;;;25.20;99.90;;;;;;4336556;33;20254;-62
2021/06/28 11:23:10;;;;;;;14.23;12.77;;;25.10;99.90;;;;;;4336106;33;20173;-63
2021/06/28 11:25:45;;;;;;;13.45;12.23;;;25.00;99.90;;;;;;4341093;33;20191;-61
2021/06/28 11:28:18;;;;;;;13.00;11.80;;;25.10;99.90;;;;;;4336634;33;20252;-62
2021/06/28 11:30:50;;;;;;;14.13;12.82;;;25.20;99.90;;;;;;4335583;33;20170;-62
2021/06/28 11:33:38;;;;;;;12.60;11.40;;;25.30;99.90;;;;;;4344865;32;20187;-61
2021/06/28 11:36:29;;;;;;;13.18;11.80;;;25.30;99.90;;;;;;4378622;32;20551;-61
2021/06/28 11:38:59;;;;;;;12.80;11.60;;;25.20;99.90;;;;;;4381099;32;20164;-62
2021/06/28 11:41:29;;;;;;;12.93;11.70;;;25.00;99.90;;;;;;4381725;32;20177;-61
2021/06/28 11:43:59;;;;;;;15.00;13.55;;;24.90;99.90;;;;;;4381295;32;20215;-60
2021/06/28 11:46:29;;;;;;;14.35;12.85;;;24.80;99.90;;;;;;4379781;32;20160;-61
2021/06/28 11:48:57;;;;;;;14.18;12.00;;;24.70;99.90;;;;;;4378451;32;20149;-60
2021/06/28 11:51:27;;;;;;;16.23;14.57;;;24.60;99.90;;;;;;4379592;32;20254;-62
2021/06/28 11:54:01;;;;;;;15.90;14.30;;;24.50;99.90;;;;;;4382365;32;20180;-62
2021/06/28 11:56:34;;;;;;;14.20;12.77;;;24.40;99.90;;;;;;4380765;32;20225;-61
2021/06/28 11:59:10;;;;;;;13.75;12.45;;;24.40;99.90;;;;;;4382401;32;20164;-63
2021/06/28 12:01:39;;;;;;;13.43;11.88;;;24.40;99.90;;;;;;4384308;32;20213;-62
2021/06/28 12:04:08;;;;;;;14.15;12.75;;;24.40;99.90;;;;;;4378464;32;20183;-63
2021/06/28 12:06:37;;;;;;;14.87;13.13;;;24.50;99.90;;;;;;4379427;32;20226;-61
2021/06/28 12:09:14;;;;;;;12.85;11.55;;;24.40;99.90;;;;;;4378992;32;20210;-62
2021/06/28 12:11:50;;;;;;;13.15;11.85;;;24.40;99.90;;;;;;4377991;32;20153;-61
2021/06/28 12:14:34;;;;;;;12.70;11.50;;;24.30;99.90;;;;;;4379059;32;20175;-61
2021/06/28 12:17:08;;;;;;;11.88;10.77;;;24.30;99.90;;;;;;4379438;32;20211;-61
2021/06/28 12:19:36;;;;;;;12.65;11.43;;;24.30;99.90;;;;;;4382875;32;20552;-62
2021/06/28 12:22:09;;;;;;;10.77;9.68;;;24.30;99.90;;;;;;4376901;32;20503;-63
2021/06/28 12:24:35;;;;;;;11.57;10.25;;;24.40;99.90;;;;;;4383741;32;20604;-61
2021/06/28 12:27:07;;;;;;;11.27;10.27;;;24.40;99.90;;;;;;4379308;32;20184;-62
2021/06/28 12:29:45;;;;;;;12.80;11.55;;;24.60;99.90;;;;;;4379962;32;20191;-61
2021/06/28 12:32:26;;;;;;;13.45;12.07;;;24.80;99.90;;;;;;4382943;32;20174;-61
2021/06/28 12:34:55;;;;;;;12.48;11.27;;;25.10;99.90;;;;;;4385110;32;20144;-60
2021/06/28 12:37:24;;;;;;;11.77;10.38;;;25.30;99.90;;;;;;4381552;32;20144;-61
2021/06/28 12:39:52;;;;;;;14.13;12.70;;;25.40;99.90;;;;;;4382425;32;20149;-61
2021/06/28 12:42:22;;;;;;;12.88;10.70;;;25.60;99.90;;;;;;4381233;32;20144;-62
2021/06/28 12:44:53;;;;;;;13.68;12.18;;;25.60;99.90;;;;;;4382041;32;20148;-62